Time;durP1;ratioP1;P1;durP2;ratioP2;P2;SDS_P1;SDS_P2;PMS_P1;PMS_P2;Temp;Humidity;BMP_temperature;BMP_pressure;BME280_temperature;BME280_humidity;BME280_pressure;Samples;Min_cycle;Max_cycle;Signal;HPM_P1;HPM_P2
2023/12/19 00:00:30;;;;;;;22.95;15.30;;;7.60;66.60;;;;;;5052398;28;20033;-75
2023/12/19 00:02:56;;;;;;;25.45;15.85;;;7.60;66.50;;;;;;5052672;28;20029;-76
2023/12/19 00:05:22;;;;;;;24.20;15.77;;;7.50;66.40;;;;;;5051652;28;20128;-75
2023/12/19 00:07:48;;;;;;;24.65;15.75;;;7.50;66.30;;;;;;5055792;28;20045;-76
2023/12/19 00:10:14;;;;;;;27.30;16.48;;;7.50;66.40;;;;;;5069539;28;20513;-76
2023/12/19 00:12:39;;;;;;;26.85;16.60;;;7.60;66.50;;;;;;5037134;28;20041;-75
2023/12/19 00:15:06;;;;;;;23.58;16.30;;;7.60;66.30;;;;;;5055855;28;20087;-73
2023/12/19 00:17:32;;;;;;;24.75;15.80;;;7.50;66.80;;;;;;5060024;28;20115;-77
2023/12/19 00:19:57;;;;;;;24.55;15.52;;;7.50;66.30;;;;;;5075424;28;20044;-77
2023/12/19 00:22:24;;;;;;;22.98;15.77;;;7.50;66.30;;;;;;5076210;28;20489;-75
2023/12/19 00:24:51;;;;;;;26.10;16.23;;;7.60;66.20;;;;;;5076285;28;20036;-75
2023/12/19 00:27:17;;;;;;;25.15;15.73;;;7.50;66.10;;;;;;5058126;28;20390;-76
2023/12/19 00:29:43;;;;;;;23.02;15.10;;;7.50;66.10;;;;;;5055368;28;20037;-75
2023/12/19 00:32:08;;;;;;;26.55;16.40;;;7.50;66.50;;;;;;5054974;28;20083;-75
2023/12/19 00:34:34;;;;;;;25.80;15.52;;;7.50;66.30;;;;;;5054916;28;20032;-76
2023/12/19 00:37:00;;;;;;;22.85;15.25;;;7.60;66.40;;;;;;5054938;28;20034;-76
2023/12/19 00:39:29;;;;;;;27.38;16.60;;;7.50;66.30;;;;;;5037067;28;20066;-77
2023/12/19 00:41:55;;;;;;;26.98;16.17;;;7.40;66.20;;;;;;5054822;28;20029;-75
2023/12/19 00:44:20;;;;;;;24.00;15.82;;;7.30;66.50;;;;;;5054647;28;20466;-76
2023/12/19 00:46:46;;;;;;;22.73;15.32;;;7.30;67.00;;;;;;5054818;28;20025;-77
2023/12/19 00:49:12;;;;;;;24.40;15.50;;;7.20;66.90;;;;;;5055240;28;20037;-76
2023/12/19 00:51:38;;;;;;;23.80;15.38;;;7.20;66.90;;;;;;5074796;28;20037;-76
2023/12/19 00:54:04;;;;;;;22.13;14.95;;;7.20;66.80;;;;;;5074523;28;20367;-75
2023/12/19 00:56:30;;;;;;;24.77;16.08;;;7.20;66.50;;;;;;5056644;28;20518;-76
2023/12/19 00:58:56;;;;;;;25.20;15.50;;;7.20;66.50;;;;;;5074469;28;20091;-76
2023/12/19 01:01:25;;;;;;;21.75;14.90;;;7.30;66.60;;;;;;5074645;28;20037;-74
2023/12/19 01:03:51;;;;;;;23.65;15.20;;;7.30;66.50;;;;;;5067226;28;20391;-75
2023/12/19 01:06:17;;;;;;;23.50;15.60;;;7.20;66.40;;;;;;5054635;28;20063;-75
2023/12/19 01:08:42;;;;;;;22.23;15.13;;;7.20;66.50;;;;;;5064611;28;20037;-75
2023/12/19 01:11:09;;;;;;;21.98;14.55;;;7.30;66.70;;;;;;5047805;28;20462;-77
2023/12/19 01:13:38;;;;;;;23.40;14.73;;;7.30;66.50;;;;;;5056195;28;20056;-75
2023/12/19 01:16:05;;;;;;;22.30;15.32;;;7.30;66.70;;;;;;5062330;28;20111;-74
2023/12/19 01:18:31;;;;;;;22.98;14.52;;;7.30;67.50;;;;;;5054192;28;20141;-74
2023/12/19 01:20:56;;;;;;;24.98;15.32;;;7.30;66.60;;;;;;5042612;28;20024;-77
2023/12/19 01:23:23;;;;;;;24.70;16.40;;;7.30;66.60;;;;;;5075029;28;20100;-75
2023/12/19 01:25:49;;;;;;;21.60;14.80;;;7.30;66.40;;;;;;5074267;28;20509;-77
2023/12/19 01:28:14;;;;;;;20.83;14.38;;;7.20;66.90;;;;;;5074008;28;20028;-75
2023/12/19 01:30:42;;;;;;;22.50;15.38;;;7.20;66.40;;;;;;5073699;28;20043;-76
2023/12/19 01:33:11;;;;;;;23.65;15.90;;;7.20;66.20;;;;;;5073547;28;20044;-77
2023/12/19 01:35:37;;;;;;;22.75;14.48;;;7.20;66.50;;;;;;5055862;28;20039;-75
2023/12/19 01:38:03;;;;;;;21.20;14.55;;;7.20;66.50;;;;;;5073732;28;20060;-75
2023/12/19 01:40:31;;;;;;;22.30;14.48;;;7.20;66.40;;;;;;5073609;28;20039;-77
2023/12/19 01:42:57;;;;;;;23.98;14.82;;;7.20;66.50;;;;;;5073340;28;20052;-75
2023/12/19 01:45:26;;;;;;;21.05;14.27;;;7.30;66.40;;;;;;5073379;28;20151;-76
2023/12/19 01:47:51;;;;;;;24.10;14.98;;;7.30;66.30;;;;;;5073287;28;20029;-76
2023/12/19 01:50:18;;;;;;;22.33;14.23;;;7.30;66.40;;;;;;5073381;28;20398;-77
2023/12/19 01:52:47;;;;;;;21.08;14.80;;;7.30;66.50;;;;;;5073317;28;20078;-74
2023/12/19 01:55:14;;;;;;;24.00;14.95;;;7.20;66.40;;;;;;5059149;28;20396;-75
2023/12/19 01:57:40;;;;;;;20.80;13.88;;;7.20;66.30;;;;;;5073443;28;20033;-76
2023/12/19 02:00:07;;;;;;;22.40;15.35;;;7.20;66.60;;;;;;5073243;28;20043;-74
2023/12/19 02:02:33;;;;;;;23.23;14.98;;;7.20;67.00;;;;;;5072928;28;20028;-75
2023/12/19 02:04:59;;;;;;;24.13;14.98;;;7.20;66.70;;;;;;5073082;28;20440;-74
2023/12/19 02:07:25;;;;;;;26.50;14.85;;;7.20;66.80;;;;;;5073002;28;20097;-75
2023/12/19 02:09:52;;;;;;;22.08;15.02;;;7.30;66.90;;;;;;5072840;28;20405;-75
2023/12/19 02:12:18;;;;;;;21.05;14.57;;;7.20;66.80;;;;;;5072428;28;20044;-75
2023/12/19 02:14:44;;;;;;;23.05;15.50;;;7.20;66.50;;;;;;5072801;28;20033;-76
2023/12/19 02:17:11;;;;;;;21.25;14.30;;;7.20;66.80;;;;;;5054628;28;20072;-77
2023/12/19 02:19:47;;;;;;;20.08;14.63;;;7.10;66.80;;;;;;5072898;28;20037;-75
2023/12/19 02:22:13;;;;;;;23.02;16.20;;;7.10;66.60;;;;;;5072827;28;20107;-76
2023/12/19 02:24:39;;;;;;;23.75;15.45;;;7.20;67.20;;;;;;5072686;28;20037;-74
2023/12/19 02:27:06;;;;;;;22.70;15.70;;;7.10;66.90;;;;;;5072515;28;20025;-74
2023/12/19 02:29:31;;;;;;;21.00;15.32;;;7.10;67.00;;;;;;5072734;28;20040;-75
2023/12/19 02:31:58;;;;;;;23.90;15.23;;;7.10;67.20;;;;;;5071889;28;20066;-75
2023/12/19 02:34:24;;;;;;;25.80;16.42;;;7.10;66.90;;;;;;5072493;28;20029;-74
2023/12/19 02:36:50;;;;;;;22.63;15.70;;;7.00;67.40;;;;;;5072455;28;20040;-76
2023/12/19 02:39:16;;;;;;;24.48;15.90;;;7.00;67.50;;;;;;5072169;28;20371;-75
2023/12/19 02:41:41;;;;;;;24.02;15.93;;;7.00;67.60;;;;;;5072490;28;20037;-74
2023/12/19 02:44:07;;;;;;;23.75;16.42;;;7.00;67.50;;;;;;5069186;28;20374;-76
2023/12/19 02:46:33;;;;;;;22.83;15.77;;;7.00;67.70;;;;;;5052696;28;20036;-78
2023/12/19 02:48:59;;;;;;;23.73;16.17;;;7.00;67.80;;;;;;5052428;28;20032;-74
2023/12/19 02:51:26;;;;;;;28.00;17.98;;;7.00;67.70;;;;;;5051995;28;20437;-75
2023/12/19 02:53:56;;;;;;;25.35;16.50;;;7.00;67.40;;;;;;5034445;28;20037;-77
2023/12/19 02:56:21;;;;;;;22.50;16.45;;;6.90;67.50;;;;;;5051980;28;20033;-74
2023/12/19 02:58:47;;;;;;;23.48;15.73;;;6.90;67.70;;;;;;5052239;28;20047;-74
2023/12/19 03:01:13;;;;;;;23.13;16.50;;;6.90;68.00;;;;;;5051977;28;20556;-75
2023/12/19 03:03:43;;;;;;;25.48;16.52;;;6.90;68.00;;;;;;5052220;28;20111;-76
2023/12/19 03:06:09;;;;;;;23.15;17.13;;;6.90;67.70;;;;;;5051905;28;20044;-75
2023/12/19 03:08:35;;;;;;;26.40;17.10;;;6.80;67.90;;;;;;5052117;28;20379;-77
2023/12/19 03:11:01;;;;;;;24.83;17.13;;;6.80;68.30;;;;;;5052494;28;20029;-76
2023/12/19 03:13:26;;;;;;;25.73;17.00;;;6.70;68.30;;;;;;5052070;28;20534;-76
2023/12/19 03:15:52;;;;;;;26.55;16.98;;;6.70;68.30;;;;;;5052092;28;20402;-75
2023/12/19 03:18:23;;;;;;;24.17;16.88;;;6.70;68.60;;;;;;5051949;28;20082;-75
2023/12/19 03:20:51;;;;;;;22.88;16.77;;;6.70;68.30;;;;;;5051756;28;20098;-75
2023/12/19 03:23:18;;;;;;;30.27;17.80;;;6.70;68.20;;;;;;5052143;28;20044;-73
2023/12/19 03:25:45;;;;;;;24.77;16.73;;;6.60;68.20;;;;;;5034986;28;20053;-72
2023/12/19 03:28:11;;;;;;;24.20;16.92;;;6.60;69.00;;;;;;5052583;28;20041;-74
2023/12/19 03:30:37;;;;;;;26.85;17.40;;;6.60;69.10;;;;;;5051890;28;20037;-77
2023/12/19 03:33:02;;;;;;;25.40;17.70;;;6.50;69.30;;;;;;5052222;28;20453;-75
2023/12/19 03:35:28;;;;;;;25.95;17.85;;;6.50;70.10;;;;;;5052167;28;20108;-74
2023/12/19 03:37:54;;;;;;;23.65;16.80;;;6.50;69.70;;;;;;5052061;28;20029;-76
2023/12/19 03:40:20;;;;;;;27.08;17.95;;;6.50;69.00;;;;;;5051784;28;20097;-74
2023/12/19 03:42:46;;;;;;;23.55;17.00;;;6.50;69.00;;;;;;5035298;28;20029;-76
2023/12/19 03:45:11;;;;;;;23.88;16.98;;;6.50;69.20;;;;;;5055797;28;20128;-74
2023/12/19 03:47:38;;;;;;;23.88;17.90;;;6.50;69.20;;;;;;5055748;28;20033;-75
2023/12/19 03:50:05;;;;;;;26.17;17.95;;;6.50;69.00;;;;;;5055738;28;20040;-75
2023/12/19 03:52:30;;;;;;;24.50;17.80;;;6.40;69.80;;;;;;5055127;28;20086;-75
2023/12/19 03:54:56;;;;;;;25.23;18.00;;;6.30;69.50;;;;;;5037649;28;20036;-76
2023/12/19 03:57:22;;;;;;;25.73;18.23;;;6.40;69.70;;;;;;5055498;28;20033;-75
2023/12/19 03:59:48;;;;;;;26.38;17.73;;;6.40;69.60;;;;;;5055190;28;20076;-74
2023/12/19 04:02:13;;;;;;;26.80;19.52;;;6.40;70.40;;;;;;5055097;28;20048;-75
2023/12/19 04:04:39;;;;;;;29.15;19.67;;;6.40;70.00;;;;;;5055333;28;20084;-75
2023/12/19 04:07:05;;;;;;;26.35;18.65;;;6.40;70.10;;;;;;5055293;28;20063;-74
2023/12/19 04:09:31;;;;;;;28.30;19.23;;;6.40;70.80;;;;;;5037657;28;20421;-74
2023/12/19 22:12:14;;;;;;;60.97;37.17;;;10.10;67.70;;;;;;5078102;22;20153;-84
2023/12/19 22:14:39;;;;;;;55.25;37.47;;;10.10;67.50;;;;;;5094329;28;20520;-82
2023/12/19 22:17:06;;;;;;;53.45;36.25;;;10.10;67.40;;;;;;5094779;28;20055;-82
2023/12/19 22:19:31;;;;;;;56.90;35.20;;;10.10;67.30;;;;;;5094879;28;20036;-84
2023/12/19 22:21:57;;;;;;;55.10;36.30;;;10.10;67.50;;;;;;5094466;28;20036;-83
2023/12/19 22:24:23;;;;;;;59.33;36.33;;;10.10;67.40;;;;;;5095594;28;20346;-83
2023/12/19 22:26:48;;;;;;;50.15;34.83;;;10.10;67.50;;;;;;5095053;28;20069;-83
2023/12/19 22:29:14;;;;;;;51.55;34.58;;;10.10;67.60;;;;;;5093311;28;20054;-82
2023/12/19 22:31:40;;;;;;;57.65;35.88;;;10.10;67.60;;;;;;5084677;28;20028;-83
2023/12/19 22:34:05;;;;;;;52.03;34.47;;;10.10;67.60;;;;;;5080676;28;20534;-82
2023/12/19 22:36:31;;;;;;;57.60;36.60;;;10.20;67.80;;;;;;5095212;28;20066;-81
2023/12/19 22:38:58;;;;;;;62.38;38.33;;;10.00;67.40;;;;;;5094313;28;20154;-81
2023/12/19 22:41:24;;;;;;;72.20;38.35;;;10.00;67.70;;;;;;5094458;28;20032;-78
2023/12/19 22:43:50;;;;;;;61.63;38.40;;;9.90;68.80;;;;;;5093631;28;20028;-78
2023/12/19 22:46:15;;;;;;;54.80;37.47;;;9.80;68.60;;;;;;5081752;28;20040;-79
2023/12/19 22:48:41;;;;;;;55.08;37.53;;;9.80;68.50;;;;;;5072036;28;20398;-80
2023/12/19 22:51:07;;;;;;;53.47;36.95;;;9.70;68.40;;;;;;5072805;28;20041;-81
2023/12/19 22:53:33;;;;;;;61.90;39.00;;;9.80;68.30;;;;;;5072905;28;20036;-81
2023/12/19 22:55:58;;;;;;;55.25;36.45;;;9.70;68.60;;;;;;5090435;28;20036;-83
2023/12/19 22:58:24;;;;;;;53.50;37.65;;;9.80;68.40;;;;;;5076238;28;20052;-80
2023/12/19 23:00:50;;;;;;;55.85;37.95;;;9.80;68.50;;;;;;5076355;28;20020;-80
2023/12/19 23:03:16;;;;;;;56.92;37.50;;;9.80;68.40;;;;;;5098588;28;20119;-82
2023/12/19 23:05:42;;;;;;;62.55;38.47;;;9.80;68.40;;;;;;5090552;28;20357;-81
2023/12/19 23:08:08;;;;;;;51.03;36.95;;;9.80;68.10;;;;;;5074349;28;20033;-81
2023/12/19 23:10:36;;;;;;;49.45;35.70;;;9.90;68.10;;;;;;5054202;28;20059;-80
2023/12/19 23:13:03;;;;;;;43.20;31.83;;;9.90;67.90;;;;;;5077623;28;20127;-81
2023/12/19 23:15:29;;;;;;;45.25;31.73;;;9.90;68.00;;;;;;5077399;28;20036;-81
2023/12/19 23:17:56;;;;;;;50.97;32.40;;;9.90;67.90;;;;;;5072112;28;20043;-82
2023/12/19 23:20:22;;;;;;;44.30;31.40;;;9.80;67.90;;;;;;5072769;28;20045;-81
2023/12/19 23:22:48;;;;;;;49.95;31.38;;;9.80;68.00;;;;;;5074710;28;20032;-83
2023/12/19 23:25:15;;;;;;;47.80;30.35;;;9.80;68.20;;;;;;5093434;28;20483;-81
2023/12/19 23:27:41;;;;;;;46.95;32.40;;;9.70;68.20;;;;;;5092590;28;20063;-81
2023/12/19 23:30:07;;;;;;;47.05;30.45;;;9.70;68.50;;;;;;5092958;28;20103;-81
2023/12/19 23:32:33;;;;;;;47.00;30.45;;;9.70;69.00;;;;;;5092506;28;20067;-80
2023/12/19 23:35:03;;;;;;;47.20;29.83;;;9.70;69.30;;;;;;5093109;28;20059;-83
2023/12/19 23:37:29;;;;;;;48.13;30.17;;;9.70;69.40;;;;;;5094166;28;20041;-82
2023/12/19 23:39:54;;;;;;;42.53;29.40;;;9.70;69.60;;;;;;5089997;28;20050;-80
2023/12/19 23:42:20;;;;;;;43.50;28.35;;;9.60;69.80;;;;;;5095217;28;20040;-83
2023/12/19 23:44:47;;;;;;;49.00;28.98;;;9.50;70.20;;;;;;5094458;28;20107;-81
2023/12/19 23:47:13;;;;;;;52.03;30.40;;;9.50;70.70;;;;;;5092489;28;20047;-82
2023/12/19 23:49:39;;;;;;;42.25;29.17;;;9.50;70.90;;;;;;5093452;28;20110;-81
2023/12/19 23:52:05;;;;;;;46.85;31.10;;;9.50;71.40;;;;;;5094889;28;20107;-80
2023/12/19 23:54:31;;;;;;;46.60;29.67;;;9.60;71.50;;;;;;5094346;28;20066;-81
2023/12/19 23:56:56;;;;;;;45.72;29.92;;;9.70;71.50;;;;;;5092416;28;20051;-80
2023/12/19 23:59:22;;;;;;;40.35;27.23;;;9.60;71.10;;;;;;5093164;28;20111;-80
